sensor_id;sensor_type;location;lat;lon;timestamp;P1;durP1;ratioP1;P2;durP2;ratioP2
14209;SDS011;7188;56.070;12.698;2023-07-16T00:00:06;4.55;;;1.75;;
14209;SDS011;7188;56.070;12.698;2023-07-16T00:02:34;3.10;;;1.48;;
14209;SDS011;7188;56.070;12.698;2023-07-16T00:05:03;2.08;;;1.35;;
14209;SDS011;7188;56.070;12.698;2023-07-16T00:07:29;2.70;;;1.45;;
14209;SDS011;7188;56.070;12.698;2023-07-16T00:09:55;3.13;;;1.85;;
14209;SDS011;7188;56.070;12.698;2023-07-16T00:12:20;1.50;;;1.30;;
14209;SDS011;7188;56.070;12.698;2023-07-16T00:14:58;2.00;;;1.55;;
14209;SDS011;7188;56.070;12.698;2023-07-16T00:17:24;1.63;;;1.40;;
14209;SDS011;7188;56.070;12.698;2023-07-16T00:19:49;2.38;;;1.33;;
14209;SDS011;7188;56.070;12.698;2023-07-16T00:22:17;4.38;;;1.75;;
14209;SDS011;7188;56.070;12.698;2023-07-16T00:24:43;6.05;;;1.73;;
14209;SDS011;7188;56.070;12.698;2023-07-16T00:27:08;3.58;;;1.58;;
14209;SDS011;7188;56.070;12.698;2023-07-16T00:29:34;3.35;;;1.65;;
14209;SDS011;7188;56.070;12.698;2023-07-16T00:31:59;3.13;;;1.40;;
14209;SDS011;7188;56.070;12.698;2023-07-16T00:34:25;5.90;;;1.98;;
14209;SDS011;7188;56.070;12.698;2023-07-16T00:36:51;2.15;;;1.75;;
14209;SDS011;7188;56.070;12.698;2023-07-16T00:39:16;3.17;;;1.60;;
14209;SDS011;7188;56.070;12.698;2023-07-16T00:41:42;4.45;;;1.77;;
14209;SDS011;7188;56.070;12.698;2023-07-16T00:44:08;4.53;;;2.13;;
14209;SDS011;7188;56.070;12.698;2023-07-16T00:46:33;2.92;;;1.67;;
14209;SDS011;7188;56.070;12.698;2023-07-16T00:48:59;4.55;;;1.88;;
14209;SDS011;7188;56.070;12.698;2023-07-16T00:51:25;2.72;;;2.20;;
14209;SDS011;7188;56.070;12.698;2023-07-16T00:53:51;3.88;;;1.67;;
14209;SDS011;7188;56.070;12.698;2023-07-16T00:56:17;2.08;;;1.83;;
14209;SDS011;7188;56.070;12.698;2023-07-16T00:58:43;3.90;;;2.05;;
14209;SDS011;7188;56.070;12.698;2023-07-16T01:01:09;5.05;;;1.73;;
14209;SDS011;7188;56.070;12.698;2023-07-16T01:03:35;2.85;;;1.70;;
14209;SDS011;7188;56.070;12.698;2023-07-16T01:06:04;2.78;;;1.77;;
14209;SDS011;7188;56.070;12.698;2023-07-16T01:11:50;6.68;;;2.58;;
14209;SDS011;7188;56.070;12.698;2023-07-16T01:14:18;4.15;;;2.30;;
14209;SDS011;7188;56.070;12.698;2023-07-16T01:16:44;2.45;;;2.25;;
14209;SDS011;7188;56.070;12.698;2023-07-16T01:19:10;3.47;;;2.25;;
14209;SDS011;7188;56.070;12.698;2023-07-16T01:21:46;5.35;;;2.13;;
14209;SDS011;7188;56.070;12.698;2023-07-16T01:24:33;4.53;;;2.97;;
14209;SDS011;7188;56.070;12.698;2023-07-16T01:30:04;3.60;;;2.47;;
14209;SDS011;7188;56.070;12.698;2023-07-16T01:32:34;5.60;;;2.70;;
14209;SDS011;7188;56.070;12.698;2023-07-16T01:35:01;6.18;;;2.97;;
14209;SDS011;7188;56.070;12.698;2023-07-16T01:37:27;11.23;;;3.70;;
14209;SDS011;7188;56.070;12.698;2023-07-16T01:39:53;9.07;;;2.78;;
14209;SDS011;7188;56.070;12.698;2023-07-16T01:42:19;7.97;;;2.90;;
14209;SDS011;7188;56.070;12.698;2023-07-16T01:44:45;7.85;;;2.50;;
14209;SDS011;7188;56.070;12.698;2023-07-16T01:47:11;6.53;;;2.10;;
14209;SDS011;7188;56.070;12.698;2023-07-16T01:49:40;3.85;;;2.30;;
14209;SDS011;7188;56.070;12.698;2023-07-16T01:52:09;7.20;;;2.25;;
14209;SDS011;7188;56.070;12.698;2023-07-16T01:54:35;1.55;;;1.45;;
14209;SDS011;7188;56.070;12.698;2023-07-16T01:57:01;2.60;;;1.48;;
14209;SDS011;7188;56.070;12.698;2023-07-16T01:59:26;2.60;;;1.40;;
14209;SDS011;7188;56.070;12.698;2023-07-16T02:01:52;3.10;;;1.52;;
14209;SDS011;7188;56.070;12.698;2023-07-16T02:04:18;2.22;;;1.65;;
14209;SDS011;7188;56.070;12.698;2023-07-16T02:06:43;2.20;;;1.58;;
14209;SDS011;7188;56.070;12.698;2023-07-16T02:09:09;2.78;;;1.58;;
14209;SDS011;7188;56.070;12.698;2023-07-16T02:11:35;1.60;;;1.50;;
14209;SDS011;7188;56.070;12.698;2023-07-16T02:14:01;2.35;;;2.25;;
14209;SDS011;7188;56.070;12.698;2023-07-16T02:16:26;3.00;;;1.88;;
14209;SDS011;7188;56.070;12.698;2023-07-16T02:18:52;4.95;;;2.05;;
14209;SDS011;7188;56.070;12.698;2023-07-16T02:21:18;3.47;;;1.75;;
14209;SDS011;7188;56.070;12.698;2023-07-16T02:23:43;2.33;;;1.67;;
14209;SDS011;7188;56.070;12.698;2023-07-16T02:26:09;3.15;;;1.02;;
14209;SDS011;7188;56.070;12.698;2023-07-16T02:28:34;2.58;;;1.05;;
14209;SDS011;7188;56.070;12.698;2023-07-16T02:31:00;2.30;;;1.10;;
14209;SDS011;7188;56.070;12.698;2023-07-16T02:33:27;2.05;;;1.10;;
14209;SDS011;7188;56.070;12.698;2023-07-16T02:35:52;4.93;;;1.30;;
14209;SDS011;7188;56.070;12.698;2023-07-16T02:38:18;5.40;;;1.80;;
14209;SDS011;7188;56.070;12.698;2023-07-16T02:40:47;3.30;;;1.13;;
14209;SDS011;7188;56.070;12.698;2023-07-16T02:43:22;2.67;;;1.00;;
14209;SDS011;7188;56.070;12.698;2023-07-16T02:45:48;2.70;;;1.15;;
14209;SDS011;7188;56.070;12.698;2023-07-16T02:48:13;4.97;;;1.00;;
14209;SDS011;7188;56.070;12.698;2023-07-16T02:50:39;2.15;;;0.95;;
14209;SDS011;7188;56.070;12.698;2023-07-16T02:53:05;2.47;;;0.77;;
14209;SDS011;7188;56.070;12.698;2023-07-16T02:55:31;1.13;;;0.80;;
14209;SDS011;7188;56.070;12.698;2023-07-16T02:57:57;1.58;;;0.70;;
14209;SDS011;7188;56.070;12.698;2023-07-16T03:00:23;1.27;;;0.67;;
14209;SDS011;7188;56.070;12.698;2023-07-16T03:02:49;2.08;;;0.70;;
14209;SDS011;7188;56.070;12.698;2023-07-16T03:05:15;1.17;;;0.80;;
14209;SDS011;7188;56.070;12.698;2023-07-16T03:07:42;0.57;;;0.53;;
14209;SDS011;7188;56.070;12.698;2023-07-16T03:10:08;1.90;;;0.75;;
14209;SDS011;7188;56.070;12.698;2023-07-16T03:12:34;1.05;;;0.57;;
14209;SDS011;7188;56.070;12.698;2023-07-16T03:14:59;2.40;;;0.70;;
14209;SDS011;7188;56.070;12.698;2023-07-16T03:20:15;0.80;;;0.50;;
14209;SDS011;7188;56.070;12.698;2023-07-16T03:22:41;2.00;;;0.70;;
14209;SDS011;7188;56.070;12.698;2023-07-16T03:25:07;0.87;;;0.70;;
14209;SDS011;7188;56.070;12.698;2023-07-16T03:27:33;0.63;;;0.50;;
14209;SDS011;7188;56.070;12.698;2023-07-16T03:29:58;1.07;;;0.77;;
14209;SDS011;7188;56.070;12.698;2023-07-16T03:32:24;0.73;;;0.70;;
14209;SDS011;7188;56.070;12.698;2023-07-16T03:34:50;1.60;;;0.60;;
14209;SDS011;7188;56.070;12.698;2023-07-16T03:37:15;1.77;;;0.63;;
14209;SDS011;7188;56.070;12.698;2023-07-16T03:39:41;0.90;;;0.55;;
14209;SDS011;7188;56.070;12.698;2023-07-16T03:42:06;3.33;;;0.70;;
14209;SDS011;7188;56.070;12.698;2023-07-16T03:44:32;0.60;;;0.60;;
14209;SDS011;7188;56.070;12.698;2023-07-16T03:46:58;1.60;;;0.60;;
14209;SDS011;7188;56.070;12.698;2023-07-16T03:49:23;2.53;;;0.60;;
14209;SDS011;7188;56.070;12.698;2023-07-16T03:51:49;2.75;;;0.68;;
14209;SDS011;7188;56.070;12.698;2023-07-16T03:54:14;1.50;;;0.60;;
14209;SDS011;7188;56.070;12.698;2023-07-16T03:56:40;1.25;;;0.55;;
14209;SDS011;7188;56.070;12.698;2023-07-16T03:59:06;1.75;;;0.70;;
14209;SDS011;7188;56.070;12.698;2023-07-16T04:01:31;0.50;;;0.40;;
14209;SDS011;7188;56.070;12.698;2023-07-16T04:03:57;3.30;;;0.80;;
14209;SDS011;7188;56.070;12.698;2023-07-16T04:09:07;0.50;;;0.50;;
14209;SDS011;7188;56.070;12.698;2023-07-16T04:11:32;1.58;;;0.63;;
14209;SDS011;7188;56.070;12.698;2023-07-16T04:13:58;1.17;;;0.60;;
14209;SDS011;7188;56.070;12.698;2023-07-16T04:16:24;1.50;;;0.50;;
14209;SDS011;7188;56.070;12.698;2023-07-16T04:18:49;2.10;;;0.40;;
14209;SDS011;7188;56.070;12.698;2023-07-16T04:21:15;2.30;;;0.40;;
14209;SDS011;7188;56.070;12.698;2023-07-16T04:23:41;1.03;;;0.43;;
14209;SDS011;7188;56.070;12.698;2023-07-16T04:26:06;0.88;;;0.40;;
14209;SDS011;7188;56.070;12.698;2023-07-16T04:28:32;1.13;;;0.70;;
14209;SDS011;7188;56.070;12.698;2023-07-16T04:30:57;0.40;;;0.40;;
14209;SDS011;7188;56.070;12.698;2023-07-16T04:33:23;1.03;;;0.50;;
14209;SDS011;7188;56.070;12.698;2023-07-16T04:35:48;0.67;;;0.67;;
14209;SDS011;7188;56.070;12.698;2023-07-16T04:38:14;5.13;;;0.80;;
14209;SDS011;7188;56.070;12.698;2023-07-16T04:40:41;1.15;;;0.63;;
14209;SDS011;7188;56.070;12.698;2023-07-16T04:43:08;1.10;;;0.73;;
14209;SDS011;7188;56.070;12.698;2023-07-16T04:45:33;1.77;;;1.10;;
14209;SDS011;7188;56.070;12.698;2023-07-16T04:48:11;5.87;;;0.97;;
14209;SDS011;7188;56.070;12.698;2023-07-16T04:50:38;3.25;;;0.60;;
14209;SDS011;7188;56.070;12.698;2023-07-16T04:53:04;0.97;;;0.60;;
14209;SDS011;7188;56.070;12.698;2023-07-16T04:55:34;3.67;;;0.70;;
14209;SDS011;7188;56.070;12.698;2023-07-16T04:58:04;5.90;;;0.80;;
14209;SDS011;7188;56.070;12.698;2023-07-16T05:00:33;1.77;;;0.80;;
14209;SDS011;7188;56.070;12.698;2023-07-16T05:02:59;3.03;;;0.85;;
14209;SDS011;7188;56.070;12.698;2023-07-16T05:05:25;1.92;;;0.60;;
14209;SDS011;7188;56.070;12.698;2023-07-16T05:07:50;3.63;;;1.00;;
14209;SDS011;7188;56.070;12.698;2023-07-16T05:10:16;0.90;;;0.60;;
14209;SDS011;7188;56.070;12.698;2023-07-16T05:12:45;4.03;;;1.00;;
14209;SDS011;7188;56.070;12.698;2023-07-16T05:15:10;0.98;;;0.65;;
14209;SDS011;7188;56.070;12.698;2023-07-16T05:17:36;3.93;;;1.10;;
14209;SDS011;7188;56.070;12.698;2023-07-16T05:20:02;3.30;;;0.83;;
14209;SDS011;7188;56.070;12.698;2023-07-16T05:22:29;1.15;;;0.70;;
14209;SDS011;7188;56.070;12.698;2023-07-16T05:24:55;3.13;;;1.00;;
14209;SDS011;7188;56.070;12.698;2023-07-16T05:27:21;0.80;;;0.70;;
14209;SDS011;7188;56.070;12.698;2023-07-16T05:29:46;1.42;;;0.82;;
14209;SDS011;7188;56.070;12.698;2023-07-16T05:32:13;2.70;;;0.95;;
14209;SDS011;7188;56.070;12.698;2023-07-16T05:34:39;2.90;;;1.13;;
14209;SDS011;7188;56.070;12.698;2023-07-16T05:37:05;1.70;;;0.93;;
14209;SDS011;7188;56.070;12.698;2023-07-16T05:39:30;3.07;;;0.87;;
14209;SDS011;7188;56.070;12.698;2023-07-16T05:41:56;3.30;;;1.00;;
14209;SDS011;7188;56.070;12.698;2023-07-16T05:44:22;1.70;;;0.83;;
14209;SDS011;7188;56.070;12.698;2023-07-16T05:46:47;1.98;;;0.70;;
14209;SDS011;7188;56.070;12.698;2023-07-16T05:49:13;3.00;;;0.80;;
14209;SDS011;7188;56.070;12.698;2023-07-16T05:51:39;1.83;;;1.05;;
14209;SDS011;7188;56.070;12.698;2023-07-16T05:54:04;1.07;;;0.80;;
14209;SDS011;7188;56.070;12.698;2023-07-16T05:56:31;0.85;;;0.75;;
14209;SDS011;7188;56.070;12.698;2023-07-16T05:58:57;6.23;;;0.90;;
14209;SDS011;7188;56.070;12.698;2023-07-16T06:01:22;2.03;;;0.80;;
14209;SDS011;7188;56.070;12.698;2023-07-16T06:03:48;2.28;;;1.08;;
14209;SDS011;7188;56.070;12.698;2023-07-16T06:06:14;2.57;;;1.30;;
14209;SDS011;7188;56.070;12.698;2023-07-16T06:08:39;4.27;;;1.37;;
14209;SDS011;7188;56.070;12.698;2023-07-16T06:11:05;3.07;;;0.80;;
14209;SDS011;7188;56.070;12.698;2023-07-16T06:13:31;3.17;;;1.10;;
14209;SDS011;7188;56.070;12.698;2023-07-16T06:15:56;2.40;;;0.70;;
14209;SDS011;7188;56.070;12.698;2023-07-16T06:18:22;4.47;;;1.10;;
14209;SDS011;7188;56.070;12.698;2023-07-16T06:20:48;5.13;;;1.10;;
14209;SDS011;7188;56.070;12.698;2023-07-16T06:23:14;2.20;;;0.97;;
14209;SDS011;7188;56.070;12.698;2023-07-16T06:25:41;2.50;;;0.90;;
14209;SDS011;7188;56.070;12.698;2023-07-16T06:28:11;4.80;;;1.10;;
14209;SDS011;7188;56.070;12.698;2023-07-16T06:30:37;2.00;;;1.00;;
14209;SDS011;7188;56.070;12.698;2023-07-16T06:33:04;3.00;;;1.17;;
14209;SDS011;7188;56.070;12.698;2023-07-16T06:35:29;3.63;;;1.17;;
14209;SDS011;7188;56.070;12.698;2023-07-16T06:37:55;3.15;;;0.98;;
14209;SDS011;7188;56.070;12.698;2023-07-16T06:40:21;2.53;;;0.97;;
14209;SDS011;7188;56.070;12.698;2023-07-16T06:42:46;5.43;;;1.83;;
14209;SDS011;7188;56.070;12.698;2023-07-16T06:45:12;1.75;;;1.10;;
14209;SDS011;7188;56.070;12.698;2023-07-16T06:47:37;2.23;;;1.00;;
14209;SDS011;7188;56.070;12.698;2023-07-16T06:50:03;6.38;;;1.52;;
14209;SDS011;7188;56.070;12.698;2023-07-16T06:52:29;3.27;;;1.53;;
14209;SDS011;7188;56.070;12.698;2023-07-16T06:54:56;4.03;;;1.13;;
14209;SDS011;7188;56.070;12.698;2023-07-16T06:57:22;4.30;;;1.65;;
14209;SDS011;7188;56.070;12.698;2023-07-16T06:59:48;3.17;;;1.50;;
14209;SDS011;7188;56.070;12.698;2023-07-16T07:02:15;2.77;;;1.67;;
14209;SDS011;7188;56.070;12.698;2023-07-16T07:04:42;4.47;;;1.50;;
14209;SDS011;7188;56.070;12.698;2023-07-16T07:07:16;5.13;;;1.60;;
14209;SDS011;7188;56.070;12.698;2023-07-16T07:09:51;4.67;;;1.27;;
14209;SDS011;7188;56.070;12.698;2023-07-16T07:12:17;6.68;;;1.55;;
14209;SDS011;7188;56.070;12.698;2023-07-16T07:14:43;2.97;;;1.52;;
14209;SDS011;7188;56.070;12.698;2023-07-16T07:17:08;4.13;;;1.30;;
14209;SDS011;7188;56.070;12.698;2023-07-16T07:19:34;4.57;;;1.42;;
14209;SDS011;7188;56.070;12.698;2023-07-16T07:22:00;2.58;;;1.33;;
14209;SDS011;7188;56.070;12.698;2023-07-16T07:24:44;2.17;;;1.13;;
14209;SDS011;7188;56.070;12.698;2023-07-16T07:27:09;6.40;;;1.98;;
14209;SDS011;7188;56.070;12.698;2023-07-16T07:29:35;6.18;;;1.17;;
14209;SDS011;7188;56.070;12.698;2023-07-16T07:32:01;2.75;;;1.55;;
14209;SDS011;7188;56.070;12.698;2023-07-16T07:34:26;2.80;;;1.58;;
14209;SDS011;7188;56.070;12.698;2023-07-16T07:36:52;6.05;;;1.40;;
14209;SDS011;7188;56.070;12.698;2023-07-16T07:39:17;7.22;;;1.50;;
14209;SDS011;7188;56.070;12.698;2023-07-16T07:41:43;4.75;;;1.35;;
14209;SDS011;7188;56.070;12.698;2023-07-16T07:44:09;3.53;;;1.65;;
14209;SDS011;7188;56.070;12.698;2023-07-16T07:46:34;4.28;;;1.77;;
14209;SDS011;7188;56.070;12.698;2023-07-16T07:49:00;3.08;;;1.45;;
14209;SDS011;7188;56.070;12.698;2023-07-16T07:51:25;3.20;;;1.45;;
14209;SDS011;7188;56.070;12.698;2023-07-16T07:53:51;6.05;;;2.00;;
14209;SDS011;7188;56.070;12.698;2023-07-16T07:56:26;5.13;;;1.90;;
14209;SDS011;7188;56.070;12.698;2023-07-16T08:02:07;7.32;;;2.40;;
14209;SDS011;7188;56.070;12.698;2023-07-16T08:04:34;9.02;;;2.17;;
14209;SDS011;7188;56.070;12.698;2023-07-16T08:07:01;5.55;;;2.53;;
14209;SDS011;7188;56.070;12.698;2023-07-16T08:09:29;5.60;;;2.35;;
14209;SDS011;7188;56.070;12.698;2023-07-16T08:11:57;6.18;;;2.10;;
14209;SDS011;7188;56.070;12.698;2023-07-16T08:14:25;3.80;;;1.98;;
14209;SDS011;7188;56.070;12.698;2023-07-16T08:51:01;5.43;;;2.00;;
14209;SDS011;7188;56.070;12.698;2023-07-16T08:53:28;7.95;;;1.95;;
14209;SDS011;7188;56.070;12.698;2023-07-16T08:55:55;7.75;;;1.88;;
14209;SDS011;7188;56.070;12.698;2023-07-16T08:58:22;4.53;;;1.60;;
14209;SDS011;7188;56.070;12.698;2023-07-16T09:00:49;4.60;;;2.25;;
14209;SDS011;7188;56.070;12.698;2023-07-16T09:03:14;7.28;;;2.40;;
14209;SDS011;7188;56.070;12.698;2023-07-16T09:05:46;4.63;;;1.67;;
14209;SDS011;7188;56.070;12.698;2023-07-16T09:08:12;2.67;;;1.55;;
14209;SDS011;7188;56.070;12.698;2023-07-16T09:10:40;3.42;;;1.77;;
14209;SDS011;7188;56.070;12.698;2023-07-16T09:13:06;4.10;;;1.75;;
14209;SDS011;7188;56.070;12.698;2023-07-16T09:15:32;5.28;;;1.90;;
14209;SDS011;7188;56.070;12.698;2023-07-16T09:18:02;6.45;;;2.10;;
14209;SDS011;7188;56.070;12.698;2023-07-16T09:20:27;1.88;;;1.42;;
14209;SDS011;7188;56.070;12.698;2023-07-16T09:22:55;2.88;;;1.70;;
14209;SDS011;7188;56.070;12.698;2023-07-16T09:25:28;4.07;;;1.63;;
14209;SDS011;7188;56.070;12.698;2023-07-16T09:27:54;4.07;;;1.95;;
14209;SDS011;7188;56.070;12.698;2023-07-16T09:30:20;4.57;;;2.00;;
14209;SDS011;7188;56.070;12.698;2023-07-16T09:32:46;8.52;;;2.05;;
14209;SDS011;7188;56.070;12.698;2023-07-16T09:35:15;5.10;;;1.88;;
14209;SDS011;7188;56.070;12.698;2023-07-16T09:37:42;5.30;;;1.63;;
14209;SDS011;7188;56.070;12.698;2023-07-16T09:40:09;3.20;;;1.35;;
14209;SDS011;7188;56.070;12.698;2023-07-16T09:42:42;4.25;;;1.52;;
14209;SDS011;7188;56.070;12.698;2023-07-16T09:45:13;2.78;;;1.52;;
14209;SDS011;7188;56.070;12.698;2023-07-16T09:47:43;4.93;;;1.20;;
14209;SDS011;7188;56.070;12.698;2023-07-16T09:50:10;5.57;;;1.67;;
14209;SDS011;7188;56.070;12.698;2023-07-16T09:52:36;4.35;;;1.23;;
14209;SDS011;7188;56.070;12.698;2023-07-16T09:55:02;4.18;;;1.35;;
14209;SDS011;7188;56.070;12.698;2023-07-16T09:57:32;5.80;;;1.60;;
14209;SDS011;7188;56.070;12.698;2023-07-16T10:00:00;4.15;;;1.98;;
14209;SDS011;7188;56.070;12.698;2023-07-16T10:02:33;6.95;;;1.83;;
14209;SDS011;7188;56.070;12.698;2023-07-16T10:05:10;3.60;;;1.58;;
14209;SDS011;7188;56.070;12.698;2023-07-16T10:07:39;3.70;;;1.58;;
14209;SDS011;7188;56.070;12.698;2023-07-16T10:10:08;5.30;;;0.90;;
14209;SDS011;7188;56.070;12.698;2023-07-16T10:12:36;3.20;;;1.60;;
14209;SDS011;7188;56.070;12.698;2023-07-16T10:15:02;5.63;;;1.40;;
14209;SDS011;7188;56.070;12.698;2023-07-16T10:17:30;4.47;;;1.50;;
14209;SDS011;7188;56.070;12.698;2023-07-16T10:22:58;3.70;;;1.98;;
14209;SDS011;7188;56.070;12.698;2023-07-16T10:27:43;6.28;;;2.10;;
14209;SDS011;7188;56.070;12.698;2023-07-16T10:30:09;3.50;;;2.00;;
14209;SDS011;7188;56.070;12.698;2023-07-16T10:32:36;3.47;;;1.50;;
14209;SDS011;7188;56.070;12.698;2023-07-16T10:35:02;2.55;;;1.38;;
14209;SDS011;7188;56.070;12.698;2023-07-16T10:37:29;3.70;;;1.20;;
14209;SDS011;7188;56.070;12.698;2023-07-16T10:39:55;2.67;;;1.38;;
14209;SDS011;7188;56.070;12.698;2023-07-16T10:42:22;6.07;;;1.58;;
14209;SDS011;7188;56.070;12.698;2023-07-16T10:44:49;3.88;;;1.48;;
14209;SDS011;7188;56.070;12.698;2023-07-16T10:47:22;7.47;;;1.90;;
14209;SDS011;7188;56.070;12.698;2023-07-16T10:49:49;5.05;;;1.42;;
14209;SDS011;7188;56.070;12.698;2023-07-16T10:52:17;5.35;;;1.90;;
14209;SDS011;7188;56.070;12.698;2023-07-16T10:54:43;3.58;;;1.95;;
14209;SDS011;7188;56.070;12.698;2023-07-16T10:57:10;7.03;;;1.95;;
14209;SDS011;7188;56.070;12.698;2023-07-16T10:59:37;5.68;;;2.13;;
14209;SDS011;7188;56.070;12.698;2023-07-16T11:02:05;3.58;;;1.52;;
14209;SDS011;7188;56.070;12.698;2023-07-16T11:04:36;5.18;;;1.73;;
14209;SDS011;7188;56.070;12.698;2023-07-16T11:07:06;4.90;;;1.70;;
14209;SDS011;7188;56.070;12.698;2023-07-16T11:09:33;3.85;;;1.70;;
14209;SDS011;7188;56.070;12.698;2023-07-16T11:12:07;2.63;;;1.63;;
14209;SDS011;7188;56.070;12.698;2023-07-16T11:14:44;2.65;;;1.40;;
14209;SDS011;7188;56.070;12.698;2023-07-16T11:17:21;3.08;;;1.80;;
14209;SDS011;7188;56.070;12.698;2023-07-16T11:19:50;1.77;;;1.10;;
14209;SDS011;7188;56.070;12.698;2023-07-16T11:22:17;3.20;;;1.70;;
14209;SDS011;7188;56.070;12.698;2023-07-16T11:24:47;7.03;;;1.60;;
14209;SDS011;7188;56.070;12.698;2023-07-16T11:32:14;3.50;;;1.60;;
14209;SDS011;7188;56.070;12.698;2023-07-16T11:34:52;6.28;;;1.63;;
14209;SDS011;7188;56.070;12.698;2023-07-16T11:37:19;2.35;;;1.40;;
14209;SDS011;7188;56.070;12.698;2023-07-16T11:39:46;3.20;;;1.85;;
14209;SDS011;7188;56.070;12.698;2023-07-16T11:42:12;5.25;;;1.70;;
14209;SDS011;7188;56.070;12.698;2023-07-16T11:44:38;3.42;;;1.80;;
14209;SDS011;7188;56.070;12.698;2023-07-16T11:47:03;5.55;;;2.17;;
14209;SDS011;7188;56.070;12.698;2023-07-16T11:49:29;6.45;;;1.52;;
14209;SDS011;7188;56.070;12.698;2023-07-16T11:51:56;4.38;;;1.88;;
14209;SDS011;7188;56.070;12.698;2023-07-16T11:54:23;3.60;;;1.63;;
14209;SDS011;7188;56.070;12.698;2023-07-16T11:56:48;5.40;;;1.77;;
14209;SDS011;7188;56.070;12.698;2023-07-16T11:59:15;5.10;;;2.15;;
14209;SDS011;7188;56.070;12.698;2023-07-16T12:01:45;6.78;;;2.03;;
14209;SDS011;7188;56.070;12.698;2023-07-16T12:04:11;4.80;;;1.88;;
14209;SDS011;7188;56.070;12.698;2023-07-16T12:06:37;6.25;;;1.75;;
14209;SDS011;7188;56.070;12.698;2023-07-16T12:09:02;8.70;;;2.28;;
14209;SDS011;7188;56.070;12.698;2023-07-16T12:11:28;4.80;;;2.45;;
14209;SDS011;7188;56.070;12.698;2023-07-16T12:13:54;3.40;;;2.00;;
14209;SDS011;7188;56.070;12.698;2023-07-16T12:16:19;5.13;;;1.58;;
14209;SDS011;7188;56.070;12.698;2023-07-16T12:18:45;3.50;;;2.30;;
14209;SDS011;7188;56.070;12.698;2023-07-16T12:21:10;9.02;;;2.80;;
14209;SDS011;7188;56.070;12.698;2023-07-16T12:23:39;4.07;;;2.20;;
14209;SDS011;7188;56.070;12.698;2023-07-16T12:26:05;3.72;;;2.22;;
14209;SDS011;7188;56.070;12.698;2023-07-16T12:28:30;4.40;;;2.42;;
14209;SDS011;7188;56.070;12.698;2023-07-16T12:30:56;6.75;;;2.22;;
14209;SDS011;7188;56.070;12.698;2023-07-16T12:33:22;4.07;;;2.30;;
14209;SDS011;7188;56.070;12.698;2023-07-16T12:35:47;3.80;;;1.58;;
14209;SDS011;7188;56.070;12.698;2023-07-16T12:38:13;6.57;;;2.60;;
14209;SDS011;7188;56.070;12.698;2023-07-16T12:40:38;3.90;;;2.40;;
14209;SDS011;7188;56.070;12.698;2023-07-16T12:43:06;5.72;;;2.47;;
14209;SDS011;7188;56.070;12.698;2023-07-16T12:45:32;4.38;;;1.90;;
14209;SDS011;7188;56.070;12.698;2023-07-16T12:47:57;4.80;;;2.30;;
14209;SDS011;7188;56.070;12.698;2023-07-16T12:50:23;3.08;;;1.60;;
14209;SDS011;7188;56.070;12.698;2023-07-16T12:52:50;6.80;;;2.10;;
14209;SDS011;7188;56.070;12.698;2023-07-16T12:55:17;5.72;;;2.33;;
14209;SDS011;7188;56.070;12.698;2023-07-16T12:57:42;6.07;;;2.50;;
14209;SDS011;7188;56.070;12.698;2023-07-16T13:00:08;8.20;;;2.28;;
14209;SDS011;7188;56.070;12.698;2023-07-16T13:02:35;7.18;;;2.50;;
14209;SDS011;7188;56.070;12.698;2023-07-16T13:05:02;4.15;;;1.90;;
14209;SDS011;7188;56.070;12.698;2023-07-16T13:07:28;6.00;;;1.95;;
14209;SDS011;7188;56.070;12.698;2023-07-16T13:09:55;6.68;;;1.90;;
14209;SDS011;7188;56.070;12.698;2023-07-16T13:12:21;6.50;;;1.80;;
14209;SDS011;7188;56.070;12.698;2023-07-16T13:14:48;5.25;;;2.17;;
14209;SDS011;7188;56.070;12.698;2023-07-16T13:17:13;13.13;;;2.65;;
14209;SDS011;7188;56.070;12.698;2023-07-16T13:19:42;4.20;;;1.73;;
14209;SDS011;7188;56.070;12.698;2023-07-16T13:22:20;7.97;;;2.38;;
14209;SDS011;7188;56.070;12.698;2023-07-16T13:24:45;7.90;;;2.55;;
14209;SDS011;7188;56.070;12.698;2023-07-16T13:27:19;3.03;;;1.85;;
14209;SDS011;7188;56.070;12.698;2023-07-16T13:29:46;4.40;;;2.08;;
14209;SDS011;7188;56.070;12.698;2023-07-16T13:32:11;6.95;;;2.33;;
14209;SDS011;7188;56.070;12.698;2023-07-16T13:34:37;4.10;;;1.77;;
14209;SDS011;7188;56.070;12.698;2023-07-16T13:37:03;3.13;;;2.10;;
14209;SDS011;7188;56.070;12.698;2023-07-16T13:39:29;3.10;;;1.75;;
14209;SDS011;7188;56.070;12.698;2023-07-16T13:41:54;4.15;;;1.80;;
14209;SDS011;7188;56.070;12.698;2023-07-16T13:44:20;4.57;;;1.95;;
14209;SDS011;7188;56.070;12.698;2023-07-16T13:46:46;3.90;;;1.60;;
14209;SDS011;7188;56.070;12.698;2023-07-16T13:49:12;6.25;;;1.67;;
14209;SDS011;7188;56.070;12.698;2023-07-16T13:51:38;3.60;;;1.40;;
14209;SDS011;7188;56.070;12.698;2023-07-16T13:54:04;4.18;;;1.10;;
14209;SDS011;7188;56.070;12.698;2023-07-16T13:56:30;2.35;;;1.80;;
14209;SDS011;7188;56.070;12.698;2023-07-16T13:58:55;4.32;;;1.17;;
14209;SDS011;7188;56.070;12.698;2023-07-16T14:01:21;2.75;;;1.00;;
14209;SDS011;7188;56.070;12.698;2023-07-16T14:03:48;2.92;;;1.40;;
14209;SDS011;7188;56.070;12.698;2023-07-16T14:09:00;2.78;;;1.10;;
14209;SDS011;7188;56.070;12.698;2023-07-16T14:11:25;5.75;;;1.60;;
14209;SDS011;7188;56.070;12.698;2023-07-16T14:13:51;1.63;;;1.23;;
14209;SDS011;7188;56.070;12.698;2023-07-16T14:16:18;4.28;;;1.95;;
14209;SDS011;7188;56.070;12.698;2023-07-16T14:18:44;2.42;;;1.48;;
14209;SDS011;7188;56.070;12.698;2023-07-16T14:21:10;4.63;;;1.25;;
14209;SDS011;7188;56.070;12.698;2023-07-16T14:23:35;3.30;;;1.40;;
14209;SDS011;7188;56.070;12.698;2023-07-16T14:26:01;4.72;;;1.13;;
14209;SDS011;7188;56.070;12.698;2023-07-16T14:28:27;2.97;;;1.40;;
14209;SDS011;7188;56.070;12.698;2023-07-16T14:30:53;4.05;;;1.63;;
14209;SDS011;7188;56.070;12.698;2023-07-16T14:33:19;6.13;;;1.48;;
14209;SDS011;7188;56.070;12.698;2023-07-16T14:35:45;4.80;;;1.38;;
14209;SDS011;7188;56.070;12.698;2023-07-16T14:38:10;5.57;;;1.70;;
14209;SDS011;7188;56.070;12.698;2023-07-16T14:40:36;6.93;;;1.67;;
14209;SDS011;7188;56.070;12.698;2023-07-16T14:43:03;6.00;;;1.98;;
14209;SDS011;7188;56.070;12.698;2023-07-16T14:45:35;8.18;;;1.67;;
14209;SDS011;7188;56.070;12.698;2023-07-16T14:48:01;5.28;;;1.52;;
14209;SDS011;7188;56.070;12.698;2023-07-16T14:50:27;7.55;;;1.83;;
14209;SDS011;7188;56.070;12.698;2023-07-16T14:52:53;8.88;;;2.15;;
14209;SDS011;7188;56.070;12.698;2023-07-16T14:55:19;7.25;;;1.65;;
14209;SDS011;7188;56.070;12.698;2023-07-16T14:57:44;5.38;;;2.00;;
14209;SDS011;7188;56.070;12.698;2023-07-16T15:00:10;8.70;;;2.03;;
14209;SDS011;7188;56.070;12.698;2023-07-16T15:02:37;7.85;;;2.22;;
14209;SDS011;7188;56.070;12.698;2023-07-16T15:05:03;6.28;;;2.28;;
14209;SDS011;7188;56.070;12.698;2023-07-16T15:07:32;6.13;;;1.80;;
14209;SDS011;7188;56.070;12.698;2023-07-16T15:09:59;5.72;;;2.25;;
14209;SDS011;7188;56.070;12.698;2023-07-16T15:12:34;4.13;;;1.75;;
14209;SDS011;7188;56.070;12.698;2023-07-16T15:15:03;4.57;;;1.48;;
14209;SDS011;7188;56.070;12.698;2023-07-16T15:17:28;4.68;;;1.83;;
14209;SDS011;7188;56.070;12.698;2023-07-16T15:19:54;6.78;;;1.73;;
14209;SDS011;7188;56.070;12.698;2023-07-16T15:22:20;4.22;;;1.73;;
14209;SDS011;7188;56.070;12.698;2023-07-16T15:24:46;4.25;;;1.90;;
14209;SDS011;7188;56.070;12.698;2023-07-16T15:27:12;5.00;;;2.05;;
14209;SDS011;7188;56.070;12.698;2023-07-16T15:29:38;6.35;;;2.60;;
14209;SDS011;7188;56.070;12.698;2023-07-16T15:32:04;6.45;;;1.92;;
14209;SDS011;7188;56.070;12.698;2023-07-16T15:34:30;5.45;;;1.90;;
14209;SDS011;7188;56.070;12.698;2023-07-16T15:36:56;5.75;;;1.63;;
14209;SDS011;7188;56.070;12.698;2023-07-16T15:39:22;5.65;;;1.73;;
14209;SDS011;7188;56.070;12.698;2023-07-16T15:41:47;5.95;;;1.75;;
14209;SDS011;7188;56.070;12.698;2023-07-16T15:44:13;6.90;;;1.60;;
14209;SDS011;7188;56.070;12.698;2023-07-16T15:46:40;3.08;;;1.52;;